Time;durP1;ratioP1;P1;durP2;ratioP2;P2;SDS_P1;SDS_P2;PMS_P1;PMS_P2;Temp;Humidity;BMP_temperature;BMP_pressure;BME280_temperature;BME280_humidity;BME280_pressure;Samples;Min_cycle;Max_cycle;Signal;HPM_P1;HPM_P2
2022/08/17 00:00:10;;;;;;;932.30;869.97;;;;;;;24.72;55.83;100593.56;691483;28;46338;-57
2022/08/17 00:00:34;;;;;;;939.63;876.97;;;;;;;24.70;56.31;100592.16;690629;28;136225;-59
2022/08/17 00:00:59;;;;;;;936.00;873.42;;;;;;;24.68;56.28;100595.22;693302;28;67547;-58
2022/08/17 00:01:23;;;;;;;914.22;852.33;;;;;;;24.68;56.23;100591.63;690827;28;92537;-58
2022/08/17 00:01:45;;;;;;;936.47;873.90;;;;;;;24.66;56.16;100597.44;662697;28;114794;-56
2022/08/17 00:02:07;;;;;;;937.22;874.70;;;;;;;24.64;56.15;100594.94;690982;28;23266;-58
2022/08/17 00:02:29;;;;;;;945.88;883.08;;;;;;;24.63;56.67;100589.69;689250;28;69466;-60
2022/08/17 00:03:00;;;;;;;946.90;884.03;;;;;;;24.62;56.42;100590.78;692382;28;22218;-57
2022/08/17 00:03:24;;;;;;;952.47;889.33;;;;;;;24.61;56.42;100597.44;690779;28;137014;-58
2022/08/17 00:03:47;;;;;;;944.65;881.80;;;;;;;24.61;56.65;100595.50;692795;28;93332;-58
2022/08/17 00:04:08;;;;;;;915.25;853.35;;;;;;;24.60;56.28;100598.53;693356;28;69382;-59
2022/08/17 00:04:29;;;;;;;941.00;878.28;;;;;;;24.58;56.68;100593.28;695968;28;982;-57
2022/08/17 00:04:50;;;;;;;937.03;874.45;;;;;;;24.62;56.64;100596.31;694849;28;22392;-60
2022/08/17 00:05:15;;;;;;;916.90;854.95;;;;;;;24.61;56.31;100591.91;694888;28;22461;-56
2022/08/17 00:05:40;;;;;;;954.50;891.33;;;;;;;24.63;56.63;100596.03;692077;28;113689;-57
2022/08/17 00:06:05;;;;;;;948.00;885.08;;;;;;;24.62;56.74;100591.63;692060;28;114899;-58
2022/08/17 00:06:31;;;;;;;941.93;879.17;;;;;;;24.64;56.67;100594.13;691127;28;137919;-59
2022/08/17 00:06:52;;;;;;;945.53;882.60;;;;;;;24.66;56.49;100596.59;690477;28;138069;-56
2022/08/17 00:07:13;;;;;;;926.08;863.75;;;;;;;24.65;56.64;100595.75;695006;28;23227;-58
2022/08/17 00:07:34;;;;;;;921.97;859.85;;;;;;;24.66;56.44;100597.44;695402;28;22318;-59
2022/08/17 00:07:56;;;;;;;946.50;883.60;;;;;;;24.67;56.80;100593.56;695882;28;19344;-58
2022/08/17 00:08:20;;;;;;;953.92;890.83;;;;;;;24.65;56.60;100593.00;694569;28;45013;-60
2022/08/17 00:08:43;;;;;;;941.10;878.40;;;;;;;24.67;56.62;100590.81;690492;28;94755;-59
2022/08/17 00:09:04;;;;;;;917.78;855.85;;;;;;;24.68;56.22;100595.22;691300;28;69586;-59
2022/08/17 00:09:26;;;;;;;913.40;851.53;;;;;;;24.68;56.72;100592.44;692870;28;22406;-59
2022/08/17 00:09:47;;;;;;;946.33;883.43;;;;;;;24.69;56.79;100593.28;692226;28;46248;-59
2022/08/17 00:10:09;;;;;;;947.25;884.25;;;;;;;24.67;56.55;100593.56;689218;28;48345;-57
2022/08/17 00:10:31;;;;;;;942.25;879.45;;;;;;;24.69;56.36;100596.06;691154;28;22387;-57
2022/08/17 00:10:53;;;;;;;943.83;881.05;;;;;;;24.68;56.54;100595.22;691212;28;69204;-58
2022/08/17 00:11:16;;;;;;;917.05;855.05;;;;;;;24.64;56.42;100594.94;692171;28;44389;-58
2022/08/17 00:11:42;;;;;;;936.10;873.60;;;;;;;24.64;56.73;100594.94;690696;28;60971;-59
2022/08/17 00:12:07;;;;;;;950.85;887.85;;;;;;;24.65;56.61;100595.75;690833;28;69313;-60
2022/08/17 00:12:28;;;;;;;923.20;861.05;;;;;;;24.62;56.60;100597.16;693242;28;92273;-58
2022/08/17 00:12:50;;;;;;;914.38;852.42;;;;;;;24.62;56.52;100599.06;694739;28;44168;-58
2022/08/17 00:13:14;;;;;;;924.13;861.97;;;;;;;24.60;56.35;100598.53;693103;28;23481;-59
2022/08/17 00:13:40;;;;;;;928.67;866.40;;;;;;;24.54;56.68;100602.34;690141;28;113576;-60
2022/08/17 00:14:05;;;;;;;927.53;865.28;;;;;;;24.51;57.04;100605.66;691734;28;138194;-59
2022/08/17 00:14:26;;;;;;;964.90;901.25;;;;;;;24.51;56.71;100605.66;689246;28;115124;-58
2022/08/17 00:14:48;;;;;;;955.90;892.63;;;;;;;24.52;56.70;100604.56;692629;28;22483;-59
2022/08/17 00:15:12;;;;;;;943.70;880.88;;;;;;;24.53;56.88;100598.75;691163;28;67475;-59
2022/08/17 00:15:34;;;;;;;945.65;882.75;;;;;;;24.55;57.16;100601.25;691359;28;69135;-58
2022/08/17 00:15:58;;;;;;;948.85;885.90;;;;;;;24.56;57.05;100598.22;691043;28;69597;-58
2022/08/17 00:16:23;;;;;;;950.75;887.63;;;;;;;24.60;56.70;100598.53;691865;28;90686;-60
2022/08/17 00:16:48;;;;;;;931.85;869.45;;;;;;;24.61;56.69;100595.50;692503;28;92251;-57
2022/08/17 00:17:10;;;;;;;949.15;886.13;;;;;;;24.64;56.58;100603.22;688448;28;136397;-58
2022/08/17 00:17:31;;;;;;;937.65;875.05;;;;;;;24.66;56.73;100602.13;693709;28;23399;-58
2022/08/17 00:17:52;;;;;;;942.45;879.58;;;;;;;24.69;56.22;100599.63;694572;28;23459;-58
2022/08/17 00:18:15;;;;;;;931.78;869.35;;;;;;;24.72;56.13;100601.84;695023;28;45238;-58
2022/08/17 00:18:39;;;;;;;909.72;848.03;;;;;;;24.75;55.87;100605.97;695069;28;45299;-59
2022/08/17 00:19:03;;;;;;;938.28;875.65;;;;;;;24.77;55.91;100604.59;693022;28;90308;-57
2022/08/17 00:19:25;;;;;;;938.75;876.15;;;;;;;24.78;56.01;100597.13;692692;28;114463;-57
2022/08/17 00:19:47;;;;;;;935.45;873.03;;;;;;;24.81;55.69;100599.34;695739;28;23468;-59
2022/08/17 00:20:10;;;;;;;943.15;880.42;;;;;;;24.82;55.58;100601.03;694972;28;46261;-60
2022/08/17 00:20:31;;;;;;;935.80;873.33;;;;;;;24.80;55.74;100604.06;694076;28;67384;-59
2022/08/17 00:20:52;;;;;;;937.20;874.70;;;;;;;24.80;55.81;100604.06;695601;28;22409;-57
2022/08/17 00:21:17;;;;;;;950.17;887.17;;;;;;;24.77;56.00;100599.09;694989;28;46312;-58
2022/08/17 00:21:40;;;;;;;945.28;882.50;;;;;;;24.76;55.97;100605.69;693398;28;93299;-56
2022/08/17 00:22:05;;;;;;;927.05;864.83;;;;;;;24.76;56.07;100602.94;692651;28;89306;-58
2022/08/17 00:22:26;;;;;;;944.95;882.08;;;;;;;24.74;56.12;100599.63;695174;28;115708;-59
2022/08/17 00:22:48;;;;;;;933.88;871.38;;;;;;;24.73;56.00;100606.25;696717;28;35693;-59
2022/08/17 00:23:15;;;;;;;929.75;867.45;;;;;;;24.71;55.74;100605.69;695227;28;35992;-59
2022/08/17 00:23:36;;;;;;;935.85;873.38;;;;;;;24.69;55.70;100604.34;694229;28;69346;-58
2022/08/17 00:24:02;;;;;;;938.80;876.22;;;;;;;24.67;55.93;100606.53;695687;28;21543;-56
2022/08/17 00:24:24;;;;;;;913.78;851.92;;;;;;;24.66;56.42;100607.66;691077;28;161084;-57
2022/08/17 00:24:46;;;;;;;898.97;837.67;;;;;;;24.63;56.23;100603.50;691271;28;69443;-59
2022/08/17 00:25:11;;;;;;;946.17;883.28;;;;;;;24.59;56.17;100608.75;693857;28;22422;-58
2022/08/17 00:25:33;;;;;;;943.40;880.60;;;;;;;24.59;56.47;100610.66;688706;28;137587;-57
2022/08/17 00:25:55;;;;;;;947.33;884.45;;;;;;;24.57;56.49;100602.66;692757;28;23461;-56
2022/08/17 00:26:17;;;;;;;951.72;888.72;;;;;;;24.56;56.32;100602.88;691799;28;44328;-57
2022/08/17 00:26:38;;;;;;;934.60;872.13;;;;;;;24.52;56.55;100599.84;693411;28;46240;-57
2022/08/17 00:27:00;;;;;;;932.05;869.55;;;;;;;24.52;56.72;100608.13;665368;28;66595;-56
2022/08/17 00:27:23;;;;;;;953.13;889.97;;;;;;;24.51;56.27;100611.16;689537;28;22396;-57
2022/08/17 00:27:45;;;;;;;940.13;877.50;;;;;;;24.49;56.42;100608.69;688518;28;70325;-57
2022/08/17 00:28:07;;;;;;;941.55;878.88;;;;;;;24.48;56.76;100609.78;688451;28;69402;-57
2022/08/17 00:28:28;;;;;;;934.65;872.22;;;;;;;24.46;56.61;100604.53;690167;28;21552;-56
2022/08/17 00:28:49;;;;;;;940.78;878.15;;;;;;;24.45;56.63;100604.81;690753;28;22394;-57
2022/08/17 00:29:10;;;;;;;935.13;872.63;;;;;;;24.44;56.80;100603.16;690323;28;22219;-57
2022/08/17 00:29:33;;;;;;;918.17;856.27;;;;;;;24.44;56.77;100605.94;692082;28;46342;-57
2022/08/17 00:29:54;;;;;;;907.65;846.00;;;;;;;24.43;56.59;100607.84;691248;28;69442;-55
2022/08/17 00:30:15;;;;;;;947.30;884.40;;;;;;;24.43;56.58;100612.53;692778;28;22203;-58
2022/08/17 00:30:37;;;;;;;944.55;881.83;;;;;;;24.42;56.43;100603.44;692959;28;22389;-57
2022/08/17 00:30:59;;;;;;;912.28;850.47;;;;;;;24.39;57.03;100601.22;692545;28;46302;-57
2022/08/17 00:31:21;;;;;;;910.67;848.97;;;;;;;24.41;56.60;100612.00;694999;28;46327;-56
2022/08/17 00:31:42;;;;;;;962.78;899.40;;;;;;;24.40;56.91;100608.38;694344;28;46335;-55
2022/08/17 00:32:03;;;;;;;955.50;892.33;;;;;;;24.38;56.79;100610.59;695479;28;22407;-57
2022/08/17 00:32:25;;;;;;;948.10;885.20;;;;;;;24.36;56.42;100607.28;695933;28;21518;-57
2022/08/17 00:32:48;;;;;;;948.63;885.72;;;;;;;24.34;56.67;100605.88;695015;28;46313;-58
2022/08/17 00:33:11;;;;;;;937.95;875.38;;;;;;;24.31;57.18;100610.03;694116;28;69328;-57
2022/08/17 00:33:32;;;;;;;910.80;849.05;;;;;;;24.32;56.78;100603.41;693355;28;92357;-57
2022/08/17 00:33:54;;;;;;;913.35;851.50;;;;;;;24.32;57.27;100603.41;695790;28;22406;-58
2022/08/17 00:34:16;;;;;;;943.72;880.90;;;;;;;24.32;57.10;100606.16;695796;28;22403;-56
2022/08/17 00:34:38;;;;;;;951.75;888.70;;;;;;;24.33;56.71;100613.34;694224;28;67486;-59
2022/08/17 00:34:59;;;;;;;935.80;873.30;;;;;;;24.32;57.12;100613.63;692694;28;22172;-60
2022/08/17 00:35:22;;;;;;;914.78;852.90;;;;;;;24.28;56.83;100603.13;690203;28;22233;-57
2022/08/17 00:35:45;;;;;;;916.63;854.72;;;;;;;24.31;56.77;100611.97;685208;28;69385;-57
2022/08/17 00:36:07;;;;;;;933.08;870.63;;;;;;;24.28;56.83;100607.81;687640;28;92111;-56
2022/08/17 00:36:28;;;;;;;969.55;905.90;;;;;;;24.28;56.64;100607.81;692063;28;46247;-59
2022/08/17 00:36:50;;;;;;;955.05;891.83;;;;;;;24.28;56.47;100611.41;692800;28;21643;-59
2022/08/17 00:37:11;;;;;;;958.30;894.90;;;;;;;24.27;56.68;100606.16;694253;28;22324;-57
2022/08/17 00:37:32;;;;;;;953.95;890.72;;;;;;;24.27;56.65;100606.16;695023;28;47135;-59
2022/08/17 00:37:54;;;;;;;946.25;883.28;;;;;;;24.27;56.65;100606.16;692156;28;23547;-59
2022/08/17 00:38:16;;;;;;;916.92;854.85;;;;;;;24.27;56.65;100614.44;689608;28;23465;-58
2022/08/17 00:38:38;;;;;;;909.85;848.10;;;;;;;24.25;56.57;100605.63;688364;28;69193;-59
2022/08/17 00:38:59;;;;;;;956.72;893.55;;;;;;;24.25;56.26;100609.19;690041;28;21616;-58
2022/08/17 00:39:20;;;;;;;973.10;909.33;;;;;;;24.26;56.81;100604.50;689158;28;45245;-60
2022/08/17 00:39:42;;;;;;;948.85;885.90;;;;;;;24.26;56.51;100610.84;690731;28;23326;-61
2022/08/17 00:40:05;;;;;;;902.78;841.25;;;;;;;24.27;56.16;100608.91;693454;28;21517;-60
2022/08/17 00:40:27;;;;;;;924.63;862.45;;;;;;;24.26;56.49;100605.34;693652;28;69240;-60
2022/08/17 00:40:50;;;;;;;945.30;882.47;;;;;;;24.26;56.65;100610.84;693986;28;67494;-61
2022/08/17 00:41:13;;;;;;;938.20;875.60;;;;;;;24.26;56.47;100608.09;694789;28;46344;-61
2022/08/17 00:41:34;;;;;;;945.72;882.88;;;;;;;24.24;56.68;100601.19;694006;28;69456;-62
2022/08/17 00:41:57;;;;;;;939.45;876.72;;;;;;;24.25;56.16;100603.66;693448;28;45249;-60
2022/08/17 00:42:18;;;;;;;919.03;857.00;;;;;;;24.26;56.05;100605.34;694801;28;45237;-60
2022/08/17 00:42:42;;;;;;;925.13;862.92;;;;;;;24.27;56.51;100609.75;695404;28;22443;-61
2022/08/17 00:43:12;;;;;;;927.17;864.97;;;;;;;24.28;56.36;100605.88;692058;28;61531;-62
2022/08/17 00:43:37;;;;;;;936.78;874.22;;;;;;;24.29;56.09;100606.72;689066;28;137956;-61
2022/08/17 00:44:01;;;;;;;943.65;880.85;;;;;;;24.29;56.14;100603.94;688770;28;138332;-61
2022/08/17 00:44:22;;;;;;;942.53;879.83;;;;;;;24.27;55.81;100606.97;692866;28;90726;-62
2022/08/17 00:44:43;;;;;;;949.63;886.67;;;;;;;24.31;55.85;100603.69;695811;28;23437;-61
2022/08/17 00:45:07;;;;;;;950.33;887.22;;;;;;;24.31;55.78;100612.81;694712;28;46324;-61
2022/08/17 00:45:29;;;;;;;946.78;883.78;;;;;;;24.32;56.22;100608.91;693161;28;92202;-58
2022/08/17 00:45:50;;;;;;;941.67;878.92;;;;;;;24.33;55.86;100602.31;695482;28;23477;-61
2022/08/17 00:46:14;;;;;;;952.35;889.30;;;;;;;24.34;55.86;100603.97;695765;28;23443;-61
2022/08/17 00:46:40;;;;;;;920.65;858.60;;;;;;;24.34;55.91;100606.75;692488;28;116040;-61
2022/08/17 00:47:02;;;;;;;919.10;856.92;;;;;;;24.35;55.90;100604.81;689613;28;158316;-60
2022/08/17 00:47:23;;;;;;;961.03;897.53;;;;;;;24.36;56.18;100603.72;695196;28;21300;-61
2022/08/17 00:47:45;;;;;;;947.22;884.30;;;;;;;24.36;56.24;100603.72;695803;28;23445;-60
2022/08/17 00:48:06;;;;;;;914.88;853.03;;;;;;;24.38;56.11;100596.78;694763;28;45375;-60
2022/08/17 00:48:29;;;;;;;906.55;844.97;;;;;;;24.36;55.82;100598.19;695685;28;21538;-62
2022/08/17 00:48:51;;;;;;;940.40;877.72;;;;;;;24.40;56.17;100604.81;693059;28;93083;-60
2022/08/17 00:49:13;;;;;;;956.03;892.80;;;;;;;24.40;55.81;100605.63;695533;28;22134;-61
2022/08/17 00:49:34;;;;;;;954.45;891.30;;;;;;;24.41;56.05;100603.72;695018;28;46410;-61
2022/08/17 00:49:55;;;;;;;940.90;878.20;;;;;;;24.40;55.98;100602.84;694854;28;46246;-62
2022/08/17 00:50:19;;;;;;;938.30;875.67;;;;;;;24.38;55.75;100604.25;694644;28;46386;-61
2022/08/17 00:50:43;;;;;;;945.38;882.50;;;;;;;24.41;56.08;100603.72;696112;28;15312;-60
2022/08/17 00:51:08;;;;;;;944.08;881.30;;;;;;;24.38;55.99;100605.06;692934;28;93122;-61
2022/08/17 00:51:33;;;;;;;943.33;880.60;;;;;;;24.36;56.33;100603.72;692617;28;113600;-61
2022/08/17 00:51:58;;;;;;;952.85;889.80;;;;;;;24.34;55.98;100601.22;691788;28;115147;-60
2022/08/17 00:52:22;;;;;;;922.30;860.17;;;;;;;24.34;55.85;100603.13;692369;28;115884;-61
2022/08/17 00:52:49;;;;;;;922.03;859.88;;;;;;;24.31;56.16;100601.75;692504;28;92151;-56
2022/08/17 00:53:11;;;;;;;943.78;881.00;;;;;;;24.32;56.17;100597.06;691439;28;138133;-60
2022/08/17 00:53:36;;;;;;;958.15;894.88;;;;;;;24.28;56.36;100603.13;694800;28;44333;-58
2022/08/17 00:54:10;;;;;;;950.85;887.75;;;;;;;24.31;56.12;100603.69;690190;28;96106;-56
2022/08/17 00:54:35;;;;;;;951.60;888.53;;;;;;;24.28;56.31;100600.38;688790;28;137492;-56
2022/08/17 00:54:57;;;;;;;927.88;865.63;;;;;;;24.28;56.40;100605.06;689577;28;115217;-57
2022/08/17 00:55:19;;;;;;;907.05;845.33;;;;;;;24.27;56.53;100601.47;690792;28;69364;-59
2022/08/17 00:55:40;;;;;;;934.88;872.28;;;;;;;24.26;56.60;100610.00;692441;28;23608;-54
2022/08/17 00:56:05;;;;;;;967.50;903.88;;;;;;;24.25;56.82;100605.63;694865;28;44368;-58
2022/08/17 00:56:31;;;;;;;953.65;890.50;;;;;;;24.22;56.48;100604.22;692305;28;114754;-56
2022/08/17 00:56:56;;;;;;;941.97;879.22;;;;;;;24.22;56.89;100604.22;689796;28;161053;-58
2022/08/17 00:57:19;;;;;;;904.65;843.00;;;;;;;24.21;56.40;100604.47;692333;28;114847;-55
2022/08/17 00:57:45;;;;;;;930.25;867.97;;;;;;;24.21;56.44;100598.97;694261;28;69449;-58
2022/08/17 00:58:07;;;;;;;939.53;876.92;;;;;;;24.19;57.06;100603.94;691777;28;137826;-57
2022/08/17 00:58:29;;;;;;;938.90;876.30;;;;;;;24.16;56.83;100602.53;694722;28;46293;-59
2022/08/17 00:58:51;;;;;;;948.72;885.75;;;;;;;24.17;56.65;100600.59;694851;28;45214;-60
2022/08/17 00:59:20;;;;;;;950.25;887.22;;;;;;;24.15;56.76;100597.28;691919;28;44745;-60
2022/08/17 00:59:46;;;;;;;961.97;898.55;;;;;;;24.15;56.97;100600.06;688889;28;136144;-54
2022/08/17 01:00:11;;;;;;;949.30;886.38;;;;;;;24.15;56.84;100600.06;688780;28;136151;-58
2022/08/17 01:00:36;;;;;;;926.13;863.95;;;;;;;24.11;56.64;100599.78;689250;28;115395;-58
2022/08/17 01:01:00;;;;;;;904.20;842.70;;;;;;;24.10;56.87;100600.88;689504;28;115120;-58
2022/08/17 01:01:23;;;;;;;937.25;874.67;;;;;;;24.11;56.69;100597.00;691508;28;58527;-56
2022/08/17 01:01:45;;;;;;;949.80;886.80;;;;;;;24.11;56.60;100595.06;690265;28;67535;-56
2022/08/17 01:02:08;;;;;;;949.80;886.80;;;;;;;24.12;56.63;100606.94;691827;28;45216;-58
2022/08/17 01:02:33;;;;;;;950.70;887.70;;;;;;;24.11;56.73;100605.28;690417;28;90666;-57
2022/08/17 01:02:59;;;;;;;946.88;883.97;;;;;;;24.11;56.60;100599.78;689774;28;115102;-59
2022/08/17 01:03:24;;;;;;;906.63;845.05;;;;;;;24.08;56.73;100597.56;688936;28;137947;-59
2022/08/17 01:03:45;;;;;;;909.28;847.63;;;;;;;24.10;56.31;100600.88;690581;28;93164;-57
2022/08/17 01:04:09;;;;;;;965.53;902.03;;;;;;;24.11;56.56;100597.00;693691;28;842;-56
2022/08/17 01:04:32;;;;;;;954.63;891.53;;;;;;;24.08;56.79;100601.13;691170;28;69331;-57
2022/08/17 01:04:55;;;;;;;946.22;883.42;;;;;;;24.10;56.89;100604.44;691159;28;67569;-58
2022/08/17 01:05:19;;;;;;;931.42;869.13;;;;;;;24.09;56.78;100596.44;691172;28;69399;-56
2022/08/17 01:05:41;;;;;;;949.00;886.10;;;;;;;24.10;56.90;100600.88;690562;28;92319;-57
2022/08/17 01:06:05;;;;;;;945.30;882.50;;;;;;;24.08;57.01;100590.09;693264;28;22429;-59
2022/08/17 01:06:28;;;;;;;940.28;877.60;;;;;;;24.08;56.66;100598.38;692380;28;115544;-58
2022/08/17 01:06:50;;;;;;;933.92;871.42;;;;;;;24.06;57.00;100596.97;692280;28;92199;-57
2022/08/17 01:07:11;;;;;;;933.00;870.50;;;;;;;24.06;56.90;100603.34;695134;28;23567;-57
2022/08/17 01:07:33;;;;;;;931.67;869.28;;;;;;;24.07;56.60;100601.41;695038;28;44179;-59
2022/08/17 01:07:56;;;;;;;934.85;872.35;;;;;;;24.07;56.69;100604.16;694777;28;45268;-59
2022/08/17 01:08:21;;;;;;;939.08;876.47;;;;;;;24.07;57.01;100602.22;694967;28;44402;-58
2022/08/17 01:08:42;;;;;;;918.05;856.15;;;;;;;24.06;56.54;100603.34;692404;28;115125;-58
2022/08/17 01:09:03;;;;;;;931.90;869.50;;;;;;;24.07;56.78;100599.47;695606;28;23524;-59
2022/08/17 01:09:25;;;;;;;974.70;910.95;;;;;;;24.06;57.05;100605.25;695739;28;23457;-60
2022/08/17 01:09:47;;;;;;;951.50;888.50;;;;;;;24.05;56.43;100603.63;694866;28;45319;-56
2022/08/17 01:10:10;;;;;;;922.05;860.03;;;;;;;24.03;56.63;100595.59;691092;28;45287;-55
2022/08/17 01:10:36;;;;;;;907.60;846.00;;;;;;;24.05;56.92;100606.38;688498;28;67753;-58
2022/08/17 01:11:00;;;;;;;940.92;878.25;;;;;;;24.06;56.70;100610.78;688332;28;138000;-61
2022/08/17 01:11:24;;;;;;;937.60;875.03;;;;;;;24.06;56.92;100605.25;688817;28;136546;-61
2022/08/17 01:11:51;;;;;;;964.13;900.63;;;;;;;24.06;56.76;100597.81;689818;28;69407;-61
2022/08/17 01:12:12;;;;;;;948.08;885.10;;;;;;;24.06;56.60;100613.53;691576;28;136396;-62
2022/08/17 01:12:33;;;;;;;949.42;886.45;;;;;;;24.06;56.75;100608.00;695685;28;22086;-61
2022/08/17 01:12:56;;;;;;;925.85;863.65;;;;;;;24.03;56.40;100603.88;695417;28;22397;-61
2022/08/17 01:13:19;;;;;;;917.78;855.80;;;;;;;24.00;56.51;100601.66;693231;28;92144;-61
2022/08/17 01:13:41;;;;;;;939.10;876.47;;;;;;;24.01;56.42;100606.09;694984;28;45210;-61
2022/08/17 01:14:03;;;;;;;950.03;887.03;;;;;;;24.00;56.40;100607.19;694886;28;46565;-61
2022/08/17 01:14:25;;;;;;;956.58;893.30;;;;;;;23.99;56.82;100607.44;694747;28;44385;-61
2022/08/17 01:14:47;;;;;;;965.13;901.60;;;;;;;23.98;56.74;100608.53;694965;28;44201;-61
2022/08/17 01:15:08;;;;;;;943.00;880.20;;;;;;;23.96;56.60;100603.28;694548;28;46294;-61
2022/08/17 01:15:30;;;;;;;930.80;868.40;;;;;;;23.94;56.84;100613.78;694805;28;44366;-61
2022/08/17 01:15:54;;;;;;;938.03;875.38;;;;;;;23.93;56.94;100607.44;694030;28;69475;-62
2022/08/17 01:16:19;;;;;;;965.38;901.83;;;;;;;23.90;57.34;100613.50;693168;28;92181;-61
2022/08/17 01:16:40;;;;;;;938.30;875.67;;;;;;;23.90;56.77;100609.88;691669;28;115094;-58
2022/08/17 01:17:02;;;;;;;932.15;869.60;;;;;;;23.89;57.11;100616.53;694468;28;22446;-58
2022/08/17 01:17:23;;;;;;;920.50;858.28;;;;;;;23.87;57.22;100610.41;694699;28;47589;-59
2022/08/17 01:17:45;;;;;;;964.00;900.47;;;;;;;23.85;57.21;100610.69;692843;28;19636;-58
2022/08/17 01:18:08;;;;;;;955.78;892.63;;;;;;;23.81;57.35;100617.84;692692;28;21518;-59
2022/08/17 01:18:30;;;;;;;931.40;869.08;;;;;;;23.82;57.05;100610.38;689963;28;90055;-60
2022/08/17 01:18:54;;;;;;;918.38;856.38;;;;;;;23.81;57.48;100608.72;691762;28;44323;-58
2022/08/17 01:19:19;;;;;;;904.65;843.13;;;;;;;23.82;57.23;100610.38;691075;28;68303;-59
2022/08/17 01:19:41;;;;;;;949.00;886.00;;;;;;;23.79;57.42;100613.66;690661;28;136405;-58
2022/08/17 01:20:03;;;;;;;960.67;897.33;;;;;;;23.80;57.49;100607.88;694848;28;46323;-58
2022/08/17 01:20:25;;;;;;;964.42;900.90;;;;;;;23.80;57.37;100612.59;694833;28;45227;-58
2022/08/17 01:20:49;;;;;;;949.78;886.75;;;;;;;23.77;57.42;100611.19;691929;28;45997;-58
2022/08/17 01:21:18;;;;;;;944.88;881.95;;;;;;;23.78;57.36;100606.50;690273;28;91850;-56
2022/08/17 01:21:43;;;;;;;946.83;883.93;;;;;;;23.77;57.68;100610.38;689729;28;109131;-60
2022/08/17 01:22:07;;;;;;;940.63;877.97;;;;;;;23.77;57.51;100613.94;687280;28;157896;-59
2022/08/17 01:22:31;;;;;;;935.30;872.88;;;;;;;23.77;57.60;100611.19;690997;28;69098;-57
2022/08/17 01:22:53;;;;;;;942.63;879.83;;;;;;;23.78;57.37;100609.25;693196;28;91926;-56
2022/08/17 01:23:16;;;;;;;963.28;899.78;;;;;;;23.78;57.44;100610.09;694047;28;67475;-57
2022/08/17 01:23:37;;;;;;;943.58;880.80;;;;;;;23.76;57.58;100612.28;694910;28;45233;-57
2022/08/17 01:23:58;;;;;;;927.28;864.97;;;;;;;23.74;57.50;100609.78;694833;28;46329;-57
2022/08/17 01:24:21;;;;;;;929.78;867.40;;;;;;;23.74;57.78;100612.53;695651;28;21531;-57
2022/08/17 01:24:45;;;;;;;937.50;874.90;;;;;;;23.72;57.22;100603.72;694916;28;46392;-57
2022/08/17 01:25:07;;;;;;;942.92;880.10;;;;;;;23.74;57.25;100609.78;693197;28;92237;-55
2022/08/17 01:25:29;;;;;;;937.58;874.95;;;;;;;23.74;57.55;100609.78;693946;28;69468;-60
2022/08/17 01:25:54;;;;;;;941.63;878.85;;;;;;;23.74;57.61;100612.53;694793;28;46424;-56
2022/08/17 01:26:16;;;;;;;939.50;876.78;;;;;;;23.75;57.82;100613.38;692501;28;113588;-57
2022/08/17 01:26:39;;;;;;;948.80;885.78;;;;;;;23.74;57.67;100608.97;692152;28;44369;-59
2022/08/17 01:27:00;;;;;;;968.85;905.05;;;;;;;23.75;57.65;100616.97;664642;28;65319;-57
2022/08/17 01:27:23;;;;;;;937.75;875.00;;;;;;;23.75;57.50;100610.63;691681;28;46140;-56
2022/08/17 01:27:45;;;;;;;938.90;876.15;;;;;;;23.74;57.71;100609.78;691155;28;69524;-55
2022/08/17 01:28:06;;;;;;;937.13;874.45;;;;;;;23.72;57.56;100600.97;691856;28;44399;-56
2022/08/17 01:28:30;;;;;;;954.95;891.78;;;;;;;23.74;57.27;100615.28;691864;28;46362;-55
2022/08/17 01:28:53;;;;;;;976.45;912.50;;;;;;;23.72;57.47;100609.22;690282;28;90705;-56
2022/08/17 01:29:15;;;;;;;959.97;896.53;;;;;;;23.74;57.65;100612.53;691130;28;69284;-57
2022/08/17 01:29:37;;;;;;;949.40;886.33;;;;;;;23.74;57.38;100606.19;693506;28;23477;-57
2022/08/17 01:30:03;;;;;;;945.03;882.10;;;;;;;23.75;57.90;100608.69;693963;28;69459;-55
2022/08/17 01:30:25;;;;;;;956.80;893.50;;;;;;;23.73;57.58;100608.13;691683;28;137884;-55
2022/08/17 01:30:46;;;;;;;988.42;924.05;;;;;;;23.77;57.48;100615.88;691077;28;67760;-58
2022/08/17 01:31:08;;;;;;;950.30;887.17;;;;;;;23.76;57.47;100612.28;692639;28;22415;-57
2022/08/17 01:31:34;;;;;;;936.22;873.63;;;;;;;23.75;57.63;100611.44;692677;28;23581;-60
2022/08/17 01:31:57;;;;;;;935.33;872.72;;;;;;;23.76;57.55;100615.03;687708;28;138016;-56
2022/08/17 01:32:20;;;;;;;931.20;868.70;;;;;;;23.75;57.92;100616.16;687516;28;92284;-57
2022/08/17 01:32:41;;;;;;;947.45;884.45;;;;;;;23.75;57.69;100613.38;690923;28;44345;-56
2022/08/17 01:33:03;;;;;;;959.83;896.42;;;;;;;23.76;57.37;100612.28;692930;28;21724;-55
2022/08/17 01:33:24;;;;;;;981.25;917.20;;;;;;;23.75;57.44;100616.16;692033;28;46307;-58
2022/08/17 01:33:46;;;;;;;961.03;897.63;;;;;;;23.74;57.75;100614.47;692841;28;23733;-59
2022/08/17 01:34:10;;;;;;;942.67;879.92;;;;;;;23.74;57.48;100611.72;692068;28;46449;-59
2022/08/17 01:34:34;;;;;;;943.45;880.58;;;;;;;23.74;57.66;100618.06;693036;28;61687;-58
2022/08/17 01:34:56;;;;;;;935.28;872.75;;;;;;;23.75;57.85;100621.66;694740;28;46312;-56
2022/08/17 01:35:19;;;;;;;940.47;877.65;;;;;;;23.75;57.63;100611.44;693342;28;46330;-57
2022/08/17 01:35:40;;;;;;;948.60;885.50;;;;;;;23.75;57.75;100616.16;691219;28;69206;-56
2022/08/17 01:36:02;;;;;;;936.55;873.95;;;;;;;23.73;57.53;100616.41;692541;28;22386;-58
2022/08/17 01:36:23;;;;;;;945.50;882.65;;;;;;;23.73;57.93;100618.31;692086;28;46294;-58
2022/08/17 01:36:47;;;;;;;949.75;886.67;;;;;;;23.72;57.97;100612.00;692206;28;21529;-58
2022/08/17 01:37:09;;;;;;;949.45;886.35;;;;;;;23.74;57.95;100617.22;689933;28;92098;-57
2022/08/17 01:37:34;;;;;;;942.28;879.47;;;;;;;23.75;58.06;100616.16;692444;28;1241;-57
2022/08/17 01:37:55;;;;;;;956.55;893.20;;;;;;;23.80;57.43;100626.38;689172;28;113560;-55
2022/08/17 01:38:17;;;;;;;965.65;901.95;;;;;;;23.81;57.70;100625.25;692615;28;22243;-57
2022/08/17 01:38:39;;;;;;;938.15;875.47;;;;;;;23.79;57.32;100619.19;691822;28;46352;-60
2022/08/17 01:39:01;;;;;;;931.70;869.22;;;;;;;23.81;57.65;100626.09;691540;28;45278;-58
2022/08/17 01:39:27;;;;;;;939.90;877.15;;;;;;;23.84;57.69;100619.22;691361;28;16085;-57
2022/08/17 01:39:51;;;;;;;941.28;878.55;;;;;;;23.86;57.13;100623.41;688855;28;136361;-56
2022/08/17 01:40:18;;;;;;;947.92;884.92;;;;;;;23.88;56.76;100623.94;690647;28;92591;-57
2022/08/17 01:40:45;;;;;;;942.70;879.90;;;;;;;23.95;56.71;100622.88;690482;28;161259;-59
2022/08/17 01:41:10;;;;;;;942.60;879.78;;;;;;;24.01;56.87;100630.06;688315;28;137863;-56
2022/08/17 01:41:32;;;;;;;941.67;878.88;;;;;;;24.04;56.67;100624.00;692485;28;115101;-55
2022/08/17 01:41:58;;;;;;;952.08;888.92;;;;;;;24.10;56.20;100632.03;693854;28;46321;-58
2022/08/17 01:42:23;;;;;;;951.55;888.30;;;;;;;24.15;56.00;100631.22;691453;28;138823;-57
2022/08/17 01:42:47;;;;;;;943.95;881.15;;;;;;;24.17;56.15;100625.44;692283;28;115000;-57